Terminal Aerodrome Forecast
Issued by NWS

Home | Current Version | Previous Version | Text Only | Print | Product List | Glossary On
Versions: 1 2 3 4 5 6 7 8 9 10 11 12 13 14 15 16 17
000
FTUS41 KCAR 300608 CCA
TAFPQI
TAF COR
KPQI 300608Z 3006/3106 19007KT P6SM SCT120 BKN250
     FM301000 19009KT 4SM BR BKN015
     FM301300 19010KT P6SM SCT035
     FM301800 20015G23KT P6SM SCT050
     FM301900 20015G22KT P6SM BKN045
     FM302300 20014KT 6SM SHRA OVC035
     FM310200 22010KT 3SM SHRA OVC020
     FM310400 24008KT 2SM RA BR OVC015
      AMD LTD TO CLD VIS AND WIND=

USA.gov is the U.S. government's official web portal to all federal, state and local government web resources and services.